| time (UTC) | temp F | wind direction | speed MPH | gust MPH | rain 1hr in | rain 24hr in | rain mn in | humidity % | barometer mb |
| 20260510044907 | 71 | 180 | 3.0 | 5.0 | 0.00 | 0.00 | 0.00 | 91 | 1010.7 |
| 20260510044408 | 71 | 193 | 2.0 | 3.0 | 0.00 | 0.00 | 0.00 | 90 | 1010.6 |
| 20260510043907 | 71 | 189 | 3.0 | 4.0 | 0.00 | 0.00 | 0.00 | 90 | 1010.8 |
| 20260510041907 | 71 | 180 | 3.0 | 4.0 | 0.00 | 0.00 | 0.00 | 89 | 1010.6 |
| 20260510041407 | 71 | 180 | 2.0 | 4.0 | 0.00 | 0.00 | 0.00 | 88 | 1010.6 |
| 20260510040906 | 72 | 185 | 3.0 | 4.0 | 0.00 | 0.00 | 0.00 | 88 | 1010.6 |
| 20260510040406 | 72 | 180 | 2.0 | 4.0 | 0.00 | 0.00 | 0.00 | 88 | 1010.7 |
| 20260510035906 | 72 | 187 | 2.0 | 4.0 | 0.00 | 0.00 | 0.00 | 87 | 1010.5 |
| 20260510035406 | 72 | 184 | 2.0 | 3.0 | 0.00 | 0.00 | 0.00 | 87 | 1010.3 |
| 20260510034906 | 72 | 180 | 3.0 | 5.0 | 0.00 | 0.00 | 0.00 | 87 | 1010.5 |
| 20260510033905 | 72 | 183 | 3.0 | 3.0 | 0.00 | 0.00 | 0.00 | 87 | 1010.5 |
| 20260510033404 | 72 | 184 | 3.0 | 3.0 | 0.00 | 0.00 | 0.00 | 86 | 1010.5 |
| 20260510032905 | 72 | 326 | 2.0 | 7.0 | 0.00 | 0.00 | 0.00 | 86 | 1010.5 |
| 20260510032405 | 72 | 187 | 2.0 | 3.0 | 0.00 | 0.00 | 0.00 | 86 | 1010.4 |
| 20260510031905 | 72 | 327 | 3.0 | 5.0 | 0.00 | 0.00 | 0.00 | 85 | 1010.3 |
| 20260510031404 | 72 | 180 | 3.0 | 7.0 | 0.00 | 0.00 | 0.00 | 85 | 1010.4 |
| 20260510030904 | 72 | 187 | 3.0 | 7.0 | 0.00 | 0.00 | 0.00 | 85 | 1010.3 |
| 20260510030404 | 73 | 180 | 3.0 | 4.0 | 0.00 | 0.00 | 0.00 | 85 | 1010.2 |
| 20260510025904 | 73 | 182 | 3.0 | 6.0 | 0.00 | 0.00 | 0.00 | 84 | 1010.1 |
| 20260510024903 | 73 | 3 | 3.0 | 4.0 | 0.00 | 0.00 | 0.00 | 83 | 1009.8 |
| 20260510024403 | 73 | 182 | 2.0 | 4.0 | 0.00 | 0.00 | 0.00 | 83 | 1009.8 |
| 20260510023903 | 73 | 185 | 3.0 | 4.0 | 0.00 | 0.00 | 0.00 | 82 | 1009.7 |
| 20260510023403 | 73 | 171 | 2.0 | 3.0 | 0.00 | 0.00 | 0.00 | 82 | 1009.8 |
| 20260510021902 | 73 | 337 | 2.0 | 2.0 | 0.00 | 0.00 | 0.00 | 81 | 1009.7 |
| 20260510020402 | 74 | 337 | 2.0 | 3.0 | 0.00 | 0.00 | 0.00 | 80 | 1009.5 |
| 20260510013857 | 74 | 337 | 2.0 | 3.0 | 0.00 | 0.00 | 0.00 | 78 | 1009.2 |
| 20260510013357 | 74 | 190 | 2.0 | 2.0 | 0.00 | 0.00 | 0.00 | 78 | 1009.2 |
| 20260510012857 | 74 | 337 | 2.0 | 2.0 | 0.00 | 0.00 | 0.00 | 77 | 1009.3 |
| 20260510012356 | 74 | 185 | 1.0 | 4.0 | 0.00 | 0.00 | 0.00 | 77 | 1009.3 |
| 20260510005855 | 75 | 324 | 1.0 | 2.0 | 0.00 | 0.00 | 0.00 | 75 | 1008.9 |
| 20260510005355 | 75 | 320 | 1.0 | 2.0 | 0.00 | 0.00 | 0.00 | 74 | 1008.8 |
| 20260510004855 | 76 | 317 | 0.0 | 2.0 | 0.00 | 0.00 | 0.00 | 73 | 1008.8 |
| 20260510004355 | 76 | 337 | 1.0 | 2.0 | 0.00 | 0.00 | 0.00 | 73 | 1008.6 |
| 20260510003855 | 76 | 297 | 1.0 | 4.0 | 0.00 | 0.00 | 0.00 | 72 | 1008.6 |
| 20260510003355 | 76 | 337 | 1.0 | 1.0 | 0.00 | 0.00 | 0.00 | 72 | 1008.6 |
| 20260510002854 | 76 | 337 | 1.0 | 2.0 | 0.00 | 0.00 | 0.00 | 71 | 1008.6 |
| 20260510002354 | 76 | 40 | 2.0 | 2.0 | 0.00 | 0.00 | 0.00 | 71 | 1008.5 |
| 20260510001854 | 77 | 324 | 0.0 | 3.0 | 0.00 | 0.00 | 0.00 | 70 | 1008.5 |
| 20260510000356 | 78 | 276 | 1.0 | 2.0 | 0.00 | 0.00 | 0.00 | 69 | 1008.5 |
| 20260509235853 | 78 | 337 | 0.0 | 2.0 | 0.00 | 0.00 | 0.00 | 69 | 1008.5 |
| 20260509235353 | 78 | 294 | 1.0 | 5.0 | 0.00 | 0.00 | 0.00 | 69 | 1008.5 |
| 20260509234853 | 78 | 310 | 1.0 | 2.0 | 0.00 | 0.00 | 0.00 | 69 | 1008.3 |
| 20260509234353 | 78 | 276 | 1.0 | 4.0 | 0.00 | 0.00 | 0.00 | 69 | 1008.4 |
| 20260509233853 | 79 | 151 | 2.0 | 2.0 | 0.00 | 0.00 | 0.00 | 69 | 1008.3 |
| 20260509233352 | 79 | 155 | 2.0 | 3.0 | 0.00 | 0.00 | 0.00 | 69 | 1008.2 |
| 20260509232852 | 79 | 258 | 0.0 | 2.0 | 0.00 | 0.00 | 0.00 | 69 | 1008.2 |
| 20260509232352 | 79 | 337 | 0.0 | 2.0 | 0.00 | 0.00 | 0.00 | 69 | 1008.1 |
| 20260509231352 | 79 | 337 | 0.0 | 3.0 | 0.00 | 0.00 | 0.00 | 69 | 1008.1 |
| 20260509230851 | 79 | 182 | 1.0 | 3.0 | 0.00 | 0.00 | 0.00 | 69 | 1008.1 |
| 20260509230351 | 79 | 83 | 2.0 | 3.0 | 0.00 | 0.00 | 0.00 | 69 | 1008.1 |
| 20260509225851 | 79 | 328 | 0.0 | 1.0 | 0.00 | 0.00 | 0.00 | 69 | 1008.2 |
| 20260509225351 | 80 | 7 | 1.0 | 3.0 | 0.00 | 0.00 | 0.00 | 70 | 1008.1 |
| 20260509224351 | 80 | 274 | 1.0 | 2.0 | 0.00 | 0.00 | 0.00 | 70 | 1008.1 |
| 20260509223350 | 80 | 337 | 1.0 | 2.0 | 0.00 | 0.00 | 0.00 | 70 | 1007.9 |
| 20260509222350 | 80 | 337 | 0.0 | 1.0 | 0.00 | 0.00 | 0.00 | 70 | 1008.0 |
| 20260509221350 | 80 | 337 | 1.0 | 2.0 | 0.00 | 0.00 | 0.00 | 70 | 1007.8 |
| 20260509220349 | 80 | 175 | 1.0 | 3.0 | 0.00 | 0.00 | 0.00 | 71 | 1007.9 |
| 20260509215349 | 79 | 337 | 0.0 | 2.0 | 0.00 | 0.00 | 0.00 | 71 | 1007.9 |
| 20260509214348 | 78 | 287 | 0.0 | 2.0 | 0.00 | 0.00 | 0.00 | 71 | 1008.0 |
| 20260509213348 | 78 | 337 | 1.0 | 3.0 | 0.00 | 0.00 | 0.00 | 69 | 1008.1 |
| 20260509212348 | 78 | 270 | 0.0 | 3.0 | 0.00 | 0.00 | 0.00 | 69 | 1008.2 |
| 20260509211347 | 79 | 54 | 3.0 | 4.0 | 0.00 | 0.00 | 0.00 | 68 | 1008.3 |
| 20260509205347 | 81 | 337 | 0.0 | 0.0 | 0.00 | 0.00 | 0.00 | 67 | 1008.3 |
| 20260509204846 | 81 | 270 | 0.0 | 2.0 | 0.00 | 0.00 | 0.00 | 67 | 1008.4 |
| 20260509204346 | 82 | 45 | 1.0 | 2.0 | 0.00 | 0.00 | 0.00 | 66 | 1008.4 |
| 20260509203346 | 83 | 153 | 1.0 | 2.0 | 0.00 | 0.00 | 0.00 | 66 | 1008.6 |
| 20260509202846 | 83 | 303 | 0.0 | 2.0 | 0.00 | 0.00 | 0.00 | 66 | 1008.5 |
| 20260509201845 | 83 | 212 | 1.0 | 3.0 | 0.00 | 0.00 | 0.00 | 67 | 1008.7 |
| 20260509201345 | 83 | 285 | 0.0 | 3.0 | 0.00 | 0.00 | 0.00 | 67 | 1008.7 |
| 20260509200845 | 82 | 337 | 0.0 | 2.0 | 0.00 | 0.00 | 0.00 | 68 | 1008.9 |
| 20260509200345 | 82 | 337 | 1.0 | 4.0 | 0.00 | 0.00 | 0.00 | 67 | 1008.8 |
| 20260509195845 | 82 | 337 | 2.0 | 3.0 | 0.00 | 0.00 | 0.00 | 67 | 1008.9 |
| 20260509195344 | 82 | 337 | 2.0 | 3.0 | 0.00 | 0.00 | 0.00 | 65 | 1008.9 |
| 20260509194844 | 83 | 176 | 3.0 | 3.0 | 0.00 | 0.00 | 0.00 | 65 | 1009.1 |
| 20260509194344 | 83 | 270 | 0.0 | 3.0 | 0.00 | 0.00 | 0.00 | 64 | 1009.1 |
| 20260509193844 | 84 | 183 | 1.0 | 3.0 | 0.00 | 0.00 | 0.00 | 64 | 1009.1 |
| 20260509193344 | 84 | 310 | 0.0 | 2.0 | 0.00 | 0.00 | 0.00 | 64 | 1009.1 |
| 20260509192843 | 84 | 337 | 1.0 | 2.0 | 0.00 | 0.00 | 0.00 | 64 | 1009.0 |
| 20260509192343 | 84 | 307 | 1.0 | 2.0 | 0.00 | 0.00 | 0.00 | 64 | 1009.2 |
| 20260509191843 | 83 | 73 | 1.0 | 3.0 | 0.00 | 0.00 | 0.00 | 66 | 1009.2 |
| 20260509191343 | 83 | 337 | 1.0 | 3.0 | 0.00 | 0.00 | 0.00 | 67 | 1009.2 |
| 20260509190843 | 81 | 198 | 2.0 | 3.0 | 0.00 | 0.00 | 0.00 | 69 | 1009.1 |
| 20260509190343 | 81 | 135 | 2.0 | 3.0 | 0.00 | 0.00 | 0.00 | 69 | 1009.2 |
| 20260509185842 | 80 | 337 | 3.0 | 3.0 | 0.00 | 0.00 | 0.00 | 67 | 1009.2 |
| 20260509185342 | 81 | 337 | 0.0 | 1.0 | 0.00 | 0.00 | 0.00 | 66 | 1009.0 |
| 20260509184842 | 81 | 0 | 2.0 | 3.0 | 0.00 | 0.00 | 0.00 | 66 | 1009.2 |
| 20260509184342 | 81 | 315 | 1.0 | 2.0 | 0.00 | 0.00 | 0.00 | 66 | 1009.1 |
| 20260509183341 | 82 | 337 | 1.0 | 2.0 | 0.00 | 0.00 | 0.00 | 67 | 1009.3 |
| 20260509182841 | 82 | 270 | 0.0 | 3.0 | 0.00 | 0.00 | 0.00 | 68 | 1009.4 |
| 20260509182341 | 82 | 270 | 0.0 | 1.0 | 0.00 | 0.00 | 0.00 | 69 | 1009.2 |
| 20260509181841 | 82 | 337 | 1.0 | 3.0 | 0.00 | 0.00 | 0.00 | 68 | 1009.2 |
| 20260509181341 | 82 | 270 | 0.0 | 2.0 | 0.00 | 0.00 | 0.00 | 67 | 1009.3 |
| 20260509180841 | 82 | 270 | 0.0 | 3.0 | 0.00 | 0.00 | 0.00 | 69 | 1009.2 |
| 20260509180340 | 81 | 276 | 2.0 | 3.0 | 0.00 | 0.00 | 0.00 | 70 | 1009.3 |
| 20260509175340 | 80 | 270 | 0.0 | 2.0 | 0.00 | 0.00 | 0.00 | 71 | 1009.4 |
| 20260509174840 | 80 | 310 | 1.0 | 3.0 | 0.00 | 0.00 | 0.00 | 72 | 1009.4 |
| 20260509174339 | 79 | 18 | 3.0 | 3.0 | 0.00 | 0.00 | 0.00 | 72 | 1009.5 |
| 20260509173839 | 79 | 321 | 0.0 | 2.0 | 0.00 | 0.00 | 0.00 | 72 | 1009.6 |
| 20260509173339 | 79 | 283 | 0.0 | 2.0 | 0.00 | 0.00 | 0.00 | 73 | 1009.6 |
| 20260509172839 | 79 | 32 | 1.0 | 3.0 | 0.00 | 0.00 | 0.00 | 73 | 1009.6 |
| 20260509172339 | 78 | 337 | 1.0 | 2.0 | 0.00 | 0.00 | 0.00 | 73 | 1009.8 |
| 20260509171839 | 78 | 189 | 1.0 | 4.0 | 0.00 | 0.00 | 0.00 | 73 | 1009.8 |
| 20260509171339 | 78 | 290 | 2.0 | 4.0 | 0.00 | 0.00 | 0.00 | 74 | 1009.5 |
| 20260509170838 | 78 | 22 | 1.0 | 1.0 | 0.00 | 0.00 | 0.00 | 73 | 1009.5 |
| 20260509170338 | 78 | 315 | 1.0 | 2.0 | 0.00 | 0.00 | 0.00 | 73 | 1009.6 |
| 20260509165838 | 78 | 37 | 2.0 | 2.0 | 0.00 | 0.00 | 0.00 | 74 | 1009.8 |
| 20260509164834 | 78 | 281 | 1.0 | 2.0 | 0.00 | 0.00 | 0.00 | 75 | 1009.8 |
| 20260509164333 | 78 | 279 | 0.0 | 1.0 | 0.00 | 0.00 | 0.00 | 75 | 1009.6 |
| 20260509162333 | 77 | 315 | 0.0 | 3.0 | 0.00 | 0.00 | 0.00 | 75 | 1009.3 |
| 20260509161833 | 77 | 315 | 1.0 | 5.0 | 0.00 | 0.00 | 0.00 | 75 | 1009.3 |
| 20260509161332 | 77 | 342 | 2.0 | 2.0 | 0.00 | 0.00 | 0.00 | 75 | 1009.2 |
| 20260509160832 | 77 | 0 | 2.0 | 4.0 | 0.00 | 0.00 | 0.00 | 76 | 1009.2 |
| 20260509155831 | 77 | 330 | 2.0 | 3.0 | 0.00 | 0.00 | 0.00 | 77 | 1009.3 |
| 20260509155332 | 76 | 315 | 1.0 | 3.0 | 0.00 | 0.00 | 0.00 | 77 | 1009.4 |
| 20260509153330 | 76 | 270 | 1.0 | 2.0 | 0.00 | 0.00 | 0.00 | 77 | 1009.2 |
| 20260509152330 | 75 | 315 | 1.0 | 3.0 | 0.00 | 0.00 | 0.00 | 76 | 1009.3 |
| 20260509151330 | 75 | 315 | 1.0 | 3.0 | 0.00 | 0.00 | 0.00 | 77 | 1009.3 |
| 20260509145829 | 75 | 315 | 1.0 | 2.0 | 0.00 | 0.00 | 0.00 | 78 | 1009.4 |
| 20260509143829 | 74 | 330 | 2.0 | 2.0 | 0.00 | 0.00 | 0.00 | 79 | 1009.5 |
| 20260509140328 | 72 | 270 | 0.0 | 2.0 | 0.00 | 0.00 | 0.00 | 82 | 1009.6 |
| 20260509134827 | 72 | 317 | 0.0 | 1.0 | 0.00 | 0.00 | 0.00 | 82 | 1009.6 |
| 20260509132326 | 72 | 270 | 1.0 | 4.0 | 0.00 | 0.00 | 0.00 | 82 | 1009.5 |
| 20260509124325 | 67 | 337 | 1.0 | 2.0 | 0.00 | 0.00 | 0.00 | 87 | 1009.0 |
| 20260509122323 | 66 | 270 | 2.0 | 2.0 | 0.00 | 0.00 | 0.00 | 86 | 1008.9 |
| 20260509121824 | 66 | 270 | 0.0 | 2.0 | 0.00 | 0.00 | 0.00 | 86 | 1008.8 |
| 20260509121323 | 66 | 270 | 2.0 | 3.0 | 0.00 | 0.00 | 0.00 | 86 | 1008.7 |
| 20260509120323 | 66 | 276 | 1.0 | 3.0 | 0.00 | 0.00 | 0.00 | 86 | 1008.7 |
| 20260509115822 | 66 | 270 | 0.0 | 1.0 | 0.00 | 0.00 | 0.00 | 86 | 1008.6 |
| 20260509115322 | 65 | 310 | 3.0 | 3.0 | 0.00 | 0.00 | 0.00 | 86 | 1008.4 |
| 20260509114822 | 65 | 317 | 2.0 | 3.0 | 0.00 | 0.00 | 0.00 | 87 | 1008.3 |
| 20260509114322 | 65 | 317 | 3.0 | 3.0 | 0.00 | 0.00 | 0.00 | 86 | 1008.4 |
| 20260509113822 | 65 | 303 | 2.0 | 2.0 | 0.00 | 0.00 | 0.00 | 86 | 1008.3 |
| 20260509113322 | 65 | 290 | 2.0 | 4.0 | 0.00 | 0.00 | 0.00 | 86 | 1008.4 |
| 20260509112822 | 65 | 303 | 2.0 | 3.0 | 0.00 | 0.00 | 0.00 | 87 | 1008.3 |
| 20260509111822 | 65 | 270 | 1.0 | 4.0 | 0.00 | 0.00 | 0.00 | 86 | 1008.1 |
| 20260509105821 | 65 | 283 | 3.0 | 3.0 | 0.00 | 0.00 | 0.00 | 87 | 1007.9 |
| 20260509103820 | 65 | 324 | 4.0 | 4.0 | 0.00 | 0.00 | 0.00 | 86 | 1007.5 |
| 20260509103320 | 65 | 326 | 2.0 | 6.0 | 0.00 | 0.00 | 0.00 | 86 | 1007.3 |
| 20260509102820 | 65 | 317 | 2.0 | 4.0 | 0.00 | 0.00 | 0.00 | 86 | 1007.3 |
| 20260509102320 | 65 | 312 | 2.0 | 4.0 | 0.00 | 0.00 | 0.00 | 86 | 1007.1 |
| 20260509101319 | 65 | 310 | 1.0 | 4.0 | 0.00 | 0.00 | 0.00 | 85 | 1007.1 |
| 20260509100819 | 66 | 320 | 3.0 | 5.0 | 0.00 | 0.00 | 0.00 | 85 | 1007.1 |
| 20260509100319 | 66 | 292 | 3.0 | 4.0 | 0.00 | 0.00 | 0.00 | 85 | 1007.1 |
| 20260509095318 | 66 | 301 | 3.0 | 3.0 | 0.00 | 0.00 | 0.00 | 85 | 1007.2 |
| 20260509094818 | 66 | 270 | 2.0 | 6.0 | 0.00 | 0.00 | 0.00 | 85 | 1007.3 |
| 20260509093314 | 66 | 312 | 4.0 | 9.0 | 0.00 | 0.00 | 0.00 | 85 | 1007.3 |
| 20260509092313 | 66 | 312 | 2.0 | 10.0 | 0.00 | 0.00 | 0.00 | 85 | 1007.4 |
| 20260509091813 | 66 | 330 | 3.0 | 6.0 | 0.00 | 0.00 | 0.00 | 85 | 1007.4 |
| 20260509091313 | 66 | 290 | 6.0 | 7.0 | 0.00 | 0.00 | 0.00 | 85 | 1007.4 |
| 20260509090313 | 66 | 301 | 2.0 | 8.0 | 0.00 | 0.00 | 0.00 | 85 | 1007.3 |
| 20260509085812 | 66 | 317 | 5.0 | 12.0 | 0.00 | 0.00 | 0.00 | 85 | 1007.4 |
| 20260509085312 | 66 | 283 | 3.0 | 8.0 | 0.00 | 0.00 | 0.00 | 85 | 1007.2 |
| 20260509084812 | 65 | 324 | 3.0 | 11.0 | 0.00 | 0.00 | 0.00 | 85 | 1007.2 |
| 20260509084311 | 65 | 292 | 2.0 | 8.0 | 0.00 | 0.00 | 0.00 | 85 | 1007.3 |
| 20260509083812 | 65 | 303 | 3.0 | 11.0 | 0.00 | 0.00 | 0.00 | 85 | 1007.3 |
| 20260509083312 | 65 | 337 | 6.0 | 13.0 | 0.00 | 0.00 | 0.00 | 85 | 1007.2 |
| 20260509082811 | 65 | 322 | 8.0 | 11.0 | 0.00 | 0.00 | 0.00 | 85 | 1007.3 |
| 20260509081811 | 65 | 327 | 4.0 | 11.0 | 0.00 | 0.00 | 0.00 | 85 | 1007.3 |
| 20260509081311 | 65 | 337 | 6.0 | 11.0 | 0.00 | 0.00 | 0.00 | 84 | 1007.3 |
| 20260509080811 | 65 | 312 | 8.0 | 11.0 | 0.00 | 0.00 | 0.00 | 84 | 1007.2 |
| 20260509080310 | 65 | 337 | 6.0 | 9.0 | 0.00 | 0.00 | 0.00 | 84 | 1007.4 |
| 20260509075810 | 65 | 337 | 8.0 | 9.0 | 0.00 | 0.00 | 0.00 | 83 | 1007.4 |
| 20260509075310 | 65 | 337 | 4.0 | 6.0 | 0.00 | 0.00 | 0.00 | 83 | 1007.6 |
| 20260509074810 | 65 | 327 | 6.0 | 11.0 | 0.00 | 0.00 | 0.00 | 83 | 1007.7 |
| 20260509074310 | 66 | 217 | 5.0 | 8.0 | 0.00 | 0.00 | 0.00 | 82 | 1007.8 |
| 20260509073810 | 66 | 189 | 6.0 | 8.0 | 0.00 | 0.00 | 0.00 | 83 | 1007.8 |
| 20260509073309 | 66 | 329 | 5.0 | 9.0 | 0.00 | 0.00 | 0.00 | 82 | 1007.8 |
| 20260509072809 | 66 | 337 | 5.0 | 7.0 | 0.00 | 0.00 | 0.00 | 82 | 1007.8 |
| 20260509072309 | 66 | 337 | 4.0 | 6.0 | 0.00 | 0.00 | 0.00 | 81 | 1007.9 |
| 20260509071809 | 66 | 330 | 5.0 | 9.0 | 0.00 | 0.00 | 0.00 | 82 | 1008.0 |
| 20260509071309 | 66 | 329 | 6.0 | 10.0 | 0.00 | 0.00 | 0.00 | 81 | 1008.1 |
| 20260509070808 | 66 | 337 | 6.0 | 7.0 | 0.00 | 0.00 | 0.00 | 81 | 1008.0 |
| 20260509070308 | 66 | 337 | 4.0 | 5.0 | 0.00 | 0.00 | 0.00 | 80 | 1007.9 |
| 20260509065808 | 66 | 202 | 2.0 | 6.0 | 0.00 | 0.00 | 0.00 | 80 | 1008.1 |
| 20260509065308 | 66 | 337 | 3.0 | 5.0 | 0.00 | 0.00 | 0.00 | 80 | 1008.0 |
| 20260509064808 | 66 | 210 | 5.0 | 6.0 | 0.00 | 0.00 | 0.00 | 80 | 1008.1 |
| 20260509064308 | 66 | 185 | 3.0 | 5.0 | 0.00 | 0.00 | 0.00 | 80 | 1008.1 |
| 20260509063807 | 66 | 186 | 3.0 | 3.0 | 0.00 | 0.00 | 0.00 | 79 | 1008.1 |
| 20260509063307 | 66 | 191 | 3.0 | 4.0 | 0.00 | 0.00 | 0.00 | 79 | 1008.1 |
| 20260509062807 | 66 | 189 | 4.0 | 4.0 | 0.00 | 0.00 | 0.00 | 78 | 1008.1 |
| 20260509062307 | 66 | 192 | 3.0 | 4.0 | 0.00 | 0.00 | 0.00 | 78 | 1008.2 |
| 20260509061807 | 66 | 180 | 3.0 | 4.0 | 0.00 | 0.00 | 0.00 | 78 | 1008.3 |
| 20260509061306 | 66 | 187 | 3.0 | 3.0 | 0.00 | 0.00 | 0.00 | 77 | 1008.3 |
| 20260509060806 | 67 | 184 | 3.0 | 4.0 | 0.00 | 0.00 | 0.00 | 77 | 1008.4 |
| 20260509060306 | 67 | 184 | 2.0 | 4.0 | 0.00 | 0.00 | 0.00 | 76 | 1008.4 |
| 20260509055806 | 67 | 180 | 3.0 | 4.0 | 0.00 | 0.00 | 0.00 | 76 | 1008.5 |
| 20260509055307 | 67 | 186 | 2.0 | 3.0 | 0.00 | 0.00 | 0.00 | 76 | 1008.5 |
| 20260509054806 | 67 | 202 | 2.0 | 3.0 | 0.00 | 0.00 | 0.00 | 76 | 1008.8 |
| 20260509054305 | 67 | 195 | 2.0 | 3.0 | 0.00 | 0.00 | 0.00 | 76 | 1008.6 |
| 20260509053805 | 67 | 202 | 2.0 | 2.0 | 0.00 | 0.00 | 0.00 | 75 | 1008.7 |
| 20260509053305 | 67 | 337 | 1.0 | 2.0 | 0.00 | 0.00 | 0.00 | 75 | 1008.9 |
| 20260509052805 | 67 | 337 | 1.0 | 3.0 | 0.00 | 0.00 | 0.00 | 75 | 1008.8 |
| 20260509052307 | 67 | 199 | 2.0 | 3.0 | 0.00 | 0.00 | 0.00 | 75 | 1008.7 |
| 20260509051805 | 67 | 185 | 3.0 | 4.0 | 0.00 | 0.00 | 0.00 | 73 | 1008.6 |
| 20260509051304 | 68 | 184 | 3.0 | 4.0 | 0.00 | 0.00 | 0.00 | 73 | 1008.7 |
| 20260509050804 | 68 | 184 | 3.0 | 4.0 | 0.00 | 0.00 | 0.00 | 72 | 1008.8 |
| 20260509050303 | 68 | 180 | 3.0 | 3.0 | 0.00 | 0.00 | 0.00 | 71 | 1009.0 |
| 20260509045804 | 68 | 189 | 3.0 | 3.0 | 0.00 | 0.00 | 0.00 | 71 | 1009.4 |
| 20260509045306 | 68 | 195 | 1.0 | 2.0 | 0.00 | 0.00 | 0.00 | 71 | 1009.6 |